sensor_id;sensor_type;location;lat;lon;timestamp;temperature;humidity
12926;DHT22;6529;50.566;9.774;2023-05-10T00:00:12;15.30;99.90
12926;DHT22;6529;50.566;9.774;2023-05-10T00:02:37;15.30;99.90
12926;DHT22;6529;50.566;9.774;2023-05-10T00:05:04;15.30;99.90
12926;DHT22;6529;50.566;9.774;2023-05-10T00:07:30;15.30;99.90
12926;DHT22;6529;50.566;9.774;2023-05-10T00:09:56;15.30;99.90
12926;DHT22;6529;50.566;9.774;2023-05-10T00:12:21;15.40;99.90
12926;DHT22;6529;50.566;9.774;2023-05-10T00:14:47;15.40;99.90
12926;DHT22;6529;50.566;9.774;2023-05-10T00:17:13;15.50;99.90
12926;DHT22;6529;50.566;9.774;2023-05-10T00:19:39;15.50;99.90
12926;DHT22;6529;50.566;9.774;2023-05-10T00:22:05;15.50;99.90
12926;DHT22;6529;50.566;9.774;2023-05-10T00:24:30;15.40;99.90
12926;DHT22;6529;50.566;9.774;2023-05-10T00:26:56;15.40;99.90
12926;DHT22;6529;50.566;9.774;2023-05-10T00:29:21;15.40;99.90
12926;DHT22;6529;50.566;9.774;2023-05-10T00:31:47;15.50;99.90
12926;DHT22;6529;50.566;9.774;2023-05-10T00:34:12;15.40;99.90
12926;DHT22;6529;50.566;9.774;2023-05-10T00:36:38;15.40;99.90
12926;DHT22;6529;50.566;9.774;2023-05-10T00:39:03;15.30;99.90
12926;DHT22;6529;50.566;9.774;2023-05-10T00:41:30;15.40;99.90
12926;DHT22;6529;50.566;9.774;2023-05-10T00:43:58;15.20;99.90
12926;DHT22;6529;50.566;9.774;2023-05-10T00:46:24;15.10;99.90
12926;DHT22;6529;50.566;9.774;2023-05-10T00:48:50;15.10;99.90
12926;DHT22;6529;50.566;9.774;2023-05-10T00:51:16;15.00;99.90
12926;DHT22;6529;50.566;9.774;2023-05-10T00:53:43;14.90;99.90
12926;DHT22;6529;50.566;9.774;2023-05-10T00:56:10;14.80;99.90
12926;DHT22;6529;50.566;9.774;2023-05-10T00:58:36;14.80;99.90
12926;DHT22;6529;50.566;9.774;2023-05-10T01:01:02;14.80;99.90
12926;DHT22;6529;50.566;9.774;2023-05-10T01:03:28;14.70;99.90
12926;DHT22;6529;50.566;9.774;2023-05-10T01:05:54;14.70;99.90
12926;DHT22;6529;50.566;9.774;2023-05-10T01:08:20;14.70;99.90
12926;DHT22;6529;50.566;9.774;2023-05-10T01:10:47;14.70;99.90
12926;DHT22;6529;50.566;9.774;2023-05-10T01:13:23;14.70;99.90
12926;DHT22;6529;50.566;9.774;2023-05-10T01:15:51;14.80;99.90
12926;DHT22;6529;50.566;9.774;2023-05-10T01:18:20;14.90;99.90
12926;DHT22;6529;50.566;9.774;2023-05-10T01:20:48;14.70;99.90
12926;DHT22;6529;50.566;9.774;2023-05-10T01:29:25;14.70;99.90
12926;DHT22;6529;50.566;9.774;2023-05-10T01:32:19;14.70;99.90
12926;DHT22;6529;50.566;9.774;2023-05-10T01:37:42;14.70;99.90
12926;DHT22;6529;50.566;9.774;2023-05-10T01:42:52;14.70;99.90
12926;DHT22;6529;50.566;9.774;2023-05-10T01:45:30;14.70;99.90
12926;DHT22;6529;50.566;9.774;2023-05-10T01:48:08;14.70;99.90
12926;DHT22;6529;50.566;9.774;2023-05-10T01:50:37;14.60;99.90
12926;DHT22;6529;50.566;9.774;2023-05-10T01:53:07;14.60;99.90
12926;DHT22;6529;50.566;9.774;2023-05-10T01:55:35;14.60;99.90
12926;DHT22;6529;50.566;9.774;2023-05-10T01:58:09;14.50;99.90
12926;DHT22;6529;50.566;9.774;2023-05-10T02:00:35;14.60;99.90
12926;DHT22;6529;50.566;9.774;2023-05-10T02:03:05;14.60;99.90
12926;DHT22;6529;50.566;9.774;2023-05-10T02:05:32;14.60;99.90
12926;DHT22;6529;50.566;9.774;2023-05-10T02:07:59;14.70;99.90
12926;DHT22;6529;50.566;9.774;2023-05-10T02:10:28;14.70;99.90
12926;DHT22;6529;50.566;9.774;2023-05-10T02:12:54;14.70;99.90
12926;DHT22;6529;50.566;9.774;2023-05-10T02:15:24;14.70;99.90
12926;DHT22;6529;50.566;9.774;2023-05-10T02:17:52;14.50;99.90
12926;DHT22;6529;50.566;9.774;2023-05-10T02:20:20;14.50;99.90
12926;DHT22;6529;50.566;9.774;2023-05-10T02:22:49;14.40;99.90
12926;DHT22;6529;50.566;9.774;2023-05-10T02:25:15;14.30;99.90
12926;DHT22;6529;50.566;9.774;2023-05-10T02:27:44;14.20;99.90
12926;DHT22;6529;50.566;9.774;2023-05-10T02:30:10;14.10;99.90
12926;DHT22;6529;50.566;9.774;2023-05-10T02:32:36;14.10;99.90
12926;DHT22;6529;50.566;9.774;2023-05-10T02:35:03;14.10;99.90
12926;DHT22;6529;50.566;9.774;2023-05-10T02:37:29;14.00;99.90
12926;DHT22;6529;50.566;9.774;2023-05-10T02:39:56;13.90;99.90
12926;DHT22;6529;50.566;9.774;2023-05-10T02:42:26;13.80;99.90
12926;DHT22;6529;50.566;9.774;2023-05-10T02:44:54;13.80;99.90
12926;DHT22;6529;50.566;9.774;2023-05-10T02:47:21;13.70;99.90
12926;DHT22;6529;50.566;9.774;2023-05-10T02:49:47;13.80;99.90
12926;DHT22;6529;50.566;9.774;2023-05-10T02:52:23;13.80;99.90
12926;DHT22;6529;50.566;9.774;2023-05-10T02:54:52;13.80;99.90
12926;DHT22;6529;50.566;9.774;2023-05-10T02:57:25;13.80;99.90
12926;DHT22;6529;50.566;9.774;2023-05-10T02:59:51;13.80;99.90
12926;DHT22;6529;50.566;9.774;2023-05-10T03:02:17;13.70;99.90
12926;DHT22;6529;50.566;9.774;2023-05-10T03:04:42;13.60;99.90
12926;DHT22;6529;50.566;9.774;2023-05-10T03:07:08;13.60;99.90
12926;DHT22;6529;50.566;9.774;2023-05-10T03:09:34;13.60;99.90
12926;DHT22;6529;50.566;9.774;2023-05-10T03:14:57;13.50;99.90
12926;DHT22;6529;50.566;9.774;2023-05-10T03:20:06;13.50;99.90
12926;DHT22;6529;50.566;9.774;2023-05-10T03:22:38;13.50;99.90
12926;DHT22;6529;50.566;9.774;2023-05-10T03:25:07;13.50;99.90
12926;DHT22;6529;50.566;9.774;2023-05-10T03:27:35;13.40;99.90
12926;DHT22;6529;50.566;9.774;2023-05-10T03:30:02;13.40;99.90
12926;DHT22;6529;50.566;9.774;2023-05-10T03:32:29;13.50;99.90
12926;DHT22;6529;50.566;9.774;2023-05-10T03:34:57;13.40;99.90
12926;DHT22;6529;50.566;9.774;2023-05-10T03:37:22;13.50;99.90
12926;DHT22;6529;50.566;9.774;2023-05-10T03:39:48;13.40;99.90
12926;DHT22;6529;50.566;9.774;2023-05-10T03:42:13;13.40;99.90
12926;DHT22;6529;50.566;9.774;2023-05-10T03:44:39;13.40;99.90
12926;DHT22;6529;50.566;9.774;2023-05-10T03:47:05;13.40;99.90
12926;DHT22;6529;50.566;9.774;2023-05-10T03:49:31;13.40;99.90
12926;DHT22;6529;50.566;9.774;2023-05-10T03:51:57;13.40;99.90
12926;DHT22;6529;50.566;9.774;2023-05-10T03:54:23;13.40;99.90
12926;DHT22;6529;50.566;9.774;2023-05-10T03:56:48;13.40;99.90
12926;DHT22;6529;50.566;9.774;2023-05-10T03:59:14;13.40;99.90
12926;DHT22;6529;50.566;9.774;2023-05-10T04:01:39;13.40;99.90
12926;DHT22;6529;50.566;9.774;2023-05-10T04:04:05;13.40;99.90
12926;DHT22;6529;50.566;9.774;2023-05-10T04:06:30;13.40;99.90
12926;DHT22;6529;50.566;9.774;2023-05-10T04:08:57;13.40;99.90
12926;DHT22;6529;50.566;9.774;2023-05-10T04:11:25;13.40;99.90
12926;DHT22;6529;50.566;9.774;2023-05-10T04:13:51;13.40;99.90
12926;DHT22;6529;50.566;9.774;2023-05-10T04:16:16;13.30;99.90
12926;DHT22;6529;50.566;9.774;2023-05-10T04:18:42;13.20;99.90
12926;DHT22;6529;50.566;9.774;2023-05-10T04:21:14;13.20;99.90
12926;DHT22;6529;50.566;9.774;2023-05-10T04:23:40;13.20;99.90
12926;DHT22;6529;50.566;9.774;2023-05-10T04:26:05;13.10;99.90
12926;DHT22;6529;50.566;9.774;2023-05-10T04:28:31;13.10;99.90
12926;DHT22;6529;50.566;9.774;2023-05-10T04:31:04;13.10;99.90
12926;DHT22;6529;50.566;9.774;2023-05-10T04:33:30;13.00;99.90
12926;DHT22;6529;50.566;9.774;2023-05-10T04:35:55;13.10;99.90
12926;DHT22;6529;50.566;9.774;2023-05-10T04:38:21;13.00;99.90
12926;DHT22;6529;50.566;9.774;2023-05-10T04:40:46;13.00;99.90
12926;DHT22;6529;50.566;9.774;2023-05-10T04:43:12;13.10;99.90
12926;DHT22;6529;50.566;9.774;2023-05-10T04:45:37;13.20;99.90
12926;DHT22;6529;50.566;9.774;2023-05-10T04:48:03;13.20;99.90
12926;DHT22;6529;50.566;9.774;2023-05-10T04:50:29;13.30;99.90
12926;DHT22;6529;50.566;9.774;2023-05-10T04:52:54;13.30;99.90
12926;DHT22;6529;50.566;9.774;2023-05-10T04:55:20;13.30;99.90
12926;DHT22;6529;50.566;9.774;2023-05-10T04:57:46;13.30;99.90
12926;DHT22;6529;50.566;9.774;2023-05-10T05:00:12;13.30;99.90
12926;DHT22;6529;50.566;9.774;2023-05-10T05:02:38;13.30;99.90
12926;DHT22;6529;50.566;9.774;2023-05-10T05:05:03;13.40;99.90
12926;DHT22;6529;50.566;9.774;2023-05-10T05:07:29;13.40;99.90
12926;DHT22;6529;50.566;9.774;2023-05-10T05:09:56;13.30;99.90
12926;DHT22;6529;50.566;9.774;2023-05-10T05:12:21;13.30;99.90
12926;DHT22;6529;50.566;9.774;2023-05-10T05:14:47;13.40;99.90
12926;DHT22;6529;50.566;9.774;2023-05-10T05:17:12;13.40;99.90
12926;DHT22;6529;50.566;9.774;2023-05-10T05:19:38;13.40;99.90
12926;DHT22;6529;50.566;9.774;2023-05-10T05:22:03;13.30;99.90
12926;DHT22;6529;50.566;9.774;2023-05-10T05:24:35;13.40;99.90
12926;DHT22;6529;50.566;9.774;2023-05-10T05:27:01;13.40;99.90
12926;DHT22;6529;50.566;9.774;2023-05-10T05:29:27;13.40;99.90
12926;DHT22;6529;50.566;9.774;2023-05-10T05:31:52;13.40;99.90
12926;DHT22;6529;50.566;9.774;2023-05-10T05:34:18;13.40;99.90
12926;DHT22;6529;50.566;9.774;2023-05-10T05:36:45;13.50;99.90
12926;DHT22;6529;50.566;9.774;2023-05-10T05:39:11;13.60;99.90
12926;DHT22;6529;50.566;9.774;2023-05-10T05:41:36;13.50;99.90
12926;DHT22;6529;50.566;9.774;2023-05-10T05:44:02;13.60;99.90
12926;DHT22;6529;50.566;9.774;2023-05-10T05:49:00;13.80;99.90
12926;DHT22;6529;50.566;9.774;2023-05-10T05:51:25;13.80;99.90
12926;DHT22;6529;50.566;9.774;2023-05-10T05:53:51;14.00;99.90
12926;DHT22;6529;50.566;9.774;2023-05-10T05:56:17;13.90;99.90
12926;DHT22;6529;50.566;9.774;2023-05-10T05:58:52;13.90;99.90
12926;DHT22;6529;50.566;9.774;2023-05-10T06:01:17;13.90;99.90
12926;DHT22;6529;50.566;9.774;2023-05-10T06:03:43;14.00;99.90
12926;DHT22;6529;50.566;9.774;2023-05-10T06:06:08;14.10;99.90
12926;DHT22;6529;50.566;9.774;2023-05-10T06:08:34;14.10;99.90
12926;DHT22;6529;50.566;9.774;2023-05-10T06:11:03;14.10;99.90
12926;DHT22;6529;50.566;9.774;2023-05-10T06:13:29;14.00;99.90
12926;DHT22;6529;50.566;9.774;2023-05-10T06:15:58;14.00;99.90
12926;DHT22;6529;50.566;9.774;2023-05-10T06:18:23;14.10;99.90
12926;DHT22;6529;50.566;9.774;2023-05-10T06:20:49;14.10;99.90
12926;DHT22;6529;50.566;9.774;2023-05-10T06:23:15;14.20;99.90
12926;DHT22;6529;50.566;9.774;2023-05-10T06:25:41;14.20;99.90
12926;DHT22;6529;50.566;9.774;2023-05-10T06:28:06;14.20;99.90
12926;DHT22;6529;50.566;9.774;2023-05-10T06:30:32;14.30;99.90
12926;DHT22;6529;50.566;9.774;2023-05-10T06:32:58;14.20;99.90
12926;DHT22;6529;50.566;9.774;2023-05-10T06:35:23;14.20;99.90
12926;DHT22;6529;50.566;9.774;2023-05-10T06:37:49;14.30;99.90
12926;DHT22;6529;50.566;9.774;2023-05-10T06:40:15;14.30;99.90
12926;DHT22;6529;50.566;9.774;2023-05-10T06:42:41;14.40;99.90
12926;DHT22;6529;50.566;9.774;2023-05-10T06:45:07;14.40;99.90
12926;DHT22;6529;50.566;9.774;2023-05-10T06:47:33;14.40;99.90
12926;DHT22;6529;50.566;9.774;2023-05-10T06:49:59;14.40;99.90
12926;DHT22;6529;50.566;9.774;2023-05-10T06:52:25;14.40;99.90
12926;DHT22;6529;50.566;9.774;2023-05-10T06:54:50;14.40;99.90
12926;DHT22;6529;50.566;9.774;2023-05-10T06:57:16;14.50;99.90
12926;DHT22;6529;50.566;9.774;2023-05-10T06:59:43;14.50;99.90
12926;DHT22;6529;50.566;9.774;2023-05-10T07:02:08;14.30;99.90
12926;DHT22;6529;50.566;9.774;2023-05-10T07:04:34;14.20;99.90
12926;DHT22;6529;50.566;9.774;2023-05-10T07:06:59;14.20;99.90
12926;DHT22;6529;50.566;9.774;2023-05-10T07:09:25;14.20;99.90
12926;DHT22;6529;50.566;9.774;2023-05-10T07:11:51;14.10;99.90
12926;DHT22;6529;50.566;9.774;2023-05-10T07:14:16;14.20;99.90
12926;DHT22;6529;50.566;9.774;2023-05-10T07:16:42;14.20;99.90
12926;DHT22;6529;50.566;9.774;2023-05-10T07:19:07;14.30;99.90
12926;DHT22;6529;50.566;9.774;2023-05-10T07:21:33;14.40;99.90
12926;DHT22;6529;50.566;9.774;2023-05-10T07:23:58;14.50;99.90
12926;DHT22;6529;50.566;9.774;2023-05-10T07:26:25;14.40;99.90
12926;DHT22;6529;50.566;9.774;2023-05-10T07:28:51;14.50;99.90
12926;DHT22;6529;50.566;9.774;2023-05-10T07:31:16;14.50;99.90
12926;DHT22;6529;50.566;9.774;2023-05-10T07:33:42;14.40;99.90
12926;DHT22;6529;50.566;9.774;2023-05-10T07:36:07;14.30;99.90
12926;DHT22;6529;50.566;9.774;2023-05-10T07:38:33;14.40;99.90
12926;DHT22;6529;50.566;9.774;2023-05-10T07:40:59;14.50;99.90
12926;DHT22;6529;50.566;9.774;2023-05-10T07:43:24;14.40;99.90
12926;DHT22;6529;50.566;9.774;2023-05-10T07:45:50;14.50;99.90
12926;DHT22;6529;50.566;9.774;2023-05-10T07:48:15;14.60;99.90
12926;DHT22;6529;50.566;9.774;2023-05-10T07:50:41;14.60;99.90
12926;DHT22;6529;50.566;9.774;2023-05-10T07:53:06;14.70;99.90
12926;DHT22;6529;50.566;9.774;2023-05-10T07:55:33;14.70;99.90
12926;DHT22;6529;50.566;9.774;2023-05-10T07:57:58;14.70;99.90
12926;DHT22;6529;50.566;9.774;2023-05-10T08:00:26;14.70;99.90
12926;DHT22;6529;50.566;9.774;2023-05-10T08:02:52;14.70;99.90
12926;DHT22;6529;50.566;9.774;2023-05-10T08:05:18;14.70;99.90
12926;DHT22;6529;50.566;9.774;2023-05-10T08:07:43;14.70;99.90
12926;DHT22;6529;50.566;9.774;2023-05-10T08:10:09;14.70;99.90
12926;DHT22;6529;50.566;9.774;2023-05-10T08:12:36;14.80;99.90
12926;DHT22;6529;50.566;9.774;2023-05-10T08:15:02;14.80;99.90
12926;DHT22;6529;50.566;9.774;2023-05-10T08:17:28;14.70;99.90
12926;DHT22;6529;50.566;9.774;2023-05-10T08:19:54;14.70;99.90
12926;DHT22;6529;50.566;9.774;2023-05-10T08:22:19;14.70;99.90
12926;DHT22;6529;50.566;9.774;2023-05-10T08:24:45;14.90;99.90
12926;DHT22;6529;50.566;9.774;2023-05-10T08:27:10;15.00;99.90
12926;DHT22;6529;50.566;9.774;2023-05-10T08:29:37;15.00;99.90
12926;DHT22;6529;50.566;9.774;2023-05-10T08:32:03;15.10;99.90
12926;DHT22;6529;50.566;9.774;2023-05-10T08:34:28;15.20;99.90
12926;DHT22;6529;50.566;9.774;2023-05-10T08:36:56;15.30;1.00
12926;DHT22;6529;50.566;9.774;2023-05-10T08:39:22;15.50;1.00
12926;DHT22;6529;50.566;9.774;2023-05-10T08:41:49;15.70;1.00
12926;DHT22;6529;50.566;9.774;2023-05-10T08:44:16;15.70;1.00
12926;DHT22;6529;50.566;9.774;2023-05-10T08:46:46;15.60;99.90
12926;DHT22;6529;50.566;9.774;2023-05-10T08:49:16;15.50;1.00
12926;DHT22;6529;50.566;9.774;2023-05-10T08:51:47;15.30;1.00
12926;DHT22;6529;50.566;9.774;2023-05-10T08:54:15;15.30;1.00
12926;DHT22;6529;50.566;9.774;2023-05-10T08:56:41;15.10;55.10
12926;DHT22;6529;50.566;9.774;2023-05-10T08:59:06;15.10;1.00
12926;DHT22;6529;50.566;9.774;2023-05-10T09:01:33;15.40;99.90
12926;DHT22;6529;50.566;9.774;2023-05-10T09:04:00;15.60;99.90
12926;DHT22;6529;50.566;9.774;2023-05-10T09:06:26;15.70;99.90
12926;DHT22;6529;50.566;9.774;2023-05-10T09:08:52;15.90;1.00
12926;DHT22;6529;50.566;9.774;2023-05-10T09:11:18;16.00;99.90
12926;DHT22;6529;50.566;9.774;2023-05-10T09:13:46;16.00;99.90
12926;DHT22;6529;50.566;9.774;2023-05-10T09:16:12;16.00;1.00
12926;DHT22;6529;50.566;9.774;2023-05-10T09:18:38;15.90;1.00
12926;DHT22;6529;50.566;9.774;2023-05-10T09:21:03;15.90;99.90
12926;DHT22;6529;50.566;9.774;2023-05-10T09:23:29;15.90;53.40
12926;DHT22;6529;50.566;9.774;2023-05-10T09:26:04;16.00;1.00
12926;DHT22;6529;50.566;9.774;2023-05-10T09:28:35;16.00;1.00
12926;DHT22;6529;50.566;9.774;2023-05-10T09:31:14;16.10;1.00
12926;DHT22;6529;50.566;9.774;2023-05-10T09:33:47;16.00;1.00
12926;DHT22;6529;50.566;9.774;2023-05-10T09:36:13;16.00;1.00
12926;DHT22;6529;50.566;9.774;2023-05-10T09:38:49;16.00;99.90
12926;DHT22;6529;50.566;9.774;2023-05-10T09:41:17;16.00;1.00
12926;DHT22;6529;50.566;9.774;2023-05-10T09:43:43;16.00;1.00
12926;DHT22;6529;50.566;9.774;2023-05-10T09:46:09;16.00;1.00
12926;DHT22;6529;50.566;9.774;2023-05-10T09:48:46;15.90;99.90
12926;DHT22;6529;50.566;9.774;2023-05-10T09:51:22;16.10;99.90
12926;DHT22;6529;50.566;9.774;2023-05-10T09:53:48;16.20;80.00
12926;DHT22;6529;50.566;9.774;2023-05-10T09:56:33;16.30;99.90
12926;DHT22;6529;50.566;9.774;2023-05-10T09:59:03;16.30;1.00
12926;DHT22;6529;50.566;9.774;2023-05-10T10:01:29;16.40;1.00
12926;DHT22;6529;50.566;9.774;2023-05-10T10:03:55;16.30;1.00
12926;DHT22;6529;50.566;9.774;2023-05-10T10:06:23;16.20;1.00
12926;DHT22;6529;50.566;9.774;2023-05-10T10:08:49;16.10;99.90
12926;DHT22;6529;50.566;9.774;2023-05-10T10:11:15;16.00;99.90
12926;DHT22;6529;50.566;9.774;2023-05-10T10:13:41;16.00;1.00
12926;DHT22;6529;50.566;9.774;2023-05-10T10:16:08;16.00;99.90
12926;DHT22;6529;50.566;9.774;2023-05-10T10:18:35;16.00;99.90
12926;DHT22;6529;50.566;9.774;2023-05-10T10:21:05;16.00;99.90
12926;DHT22;6529;50.566;9.774;2023-05-10T10:23:32;16.20;99.90
12926;DHT22;6529;50.566;9.774;2023-05-10T10:25:58;16.50;99.90
12926;DHT22;6529;50.566;9.774;2023-05-10T10:28:35;16.80;1.00
12926;DHT22;6529;50.566;9.774;2023-05-10T10:31:40;17.10;99.90
12926;DHT22;6529;50.566;9.774;2023-05-10T10:34:09;17.20;83.20
12926;DHT22;6529;50.566;9.774;2023-05-10T10:36:47;17.50;99.90
12926;DHT22;6529;50.566;9.774;2023-05-10T10:39:14;17.80;99.90
12926;DHT22;6529;50.566;9.774;2023-05-10T10:41:48;17.70;1.00
12926;DHT22;6529;50.566;9.774;2023-05-10T10:49:30;17.20;1.00
12926;DHT22;6529;50.566;9.774;2023-05-10T10:54:41;17.10;52.20
12926;DHT22;6529;50.566;9.774;2023-05-10T10:57:14;17.10;99.90
12926;DHT22;6529;50.566;9.774;2023-05-10T10:59:43;17.20;1.00
12926;DHT22;6529;50.566;9.774;2023-05-10T11:02:43;17.30;99.90
12926;DHT22;6529;50.566;9.774;2023-05-10T11:05:24;17.30;1.00
12926;DHT22;6529;50.566;9.774;2023-05-10T11:07:58;17.60;1.00
12926;DHT22;6529;50.566;9.774;2023-05-10T11:10:25;17.60;1.00
12926;DHT22;6529;50.566;9.774;2023-05-10T11:13:02;17.60;1.00
12926;DHT22;6529;50.566;9.774;2023-05-10T11:17:57;17.70;99.90
12926;DHT22;6529;50.566;9.774;2023-05-10T11:20:23;17.50;99.90
12926;DHT22;6529;50.566;9.774;2023-05-10T11:22:53;17.40;1.00
12926;DHT22;6529;50.566;9.774;2023-05-10T11:25:19;17.30;1.00
12926;DHT22;6529;50.566;9.774;2023-05-10T11:27:47;17.30;1.00
12926;DHT22;6529;50.566;9.774;2023-05-10T11:30:13;17.20;99.90
12926;DHT22;6529;50.566;9.774;2023-05-10T11:32:40;17.20;1.00
12926;DHT22;6529;50.566;9.774;2023-05-10T11:35:10;17.10;1.00
12926;DHT22;6529;50.566;9.774;2023-05-10T11:37:38;17.20;1.00
12926;DHT22;6529;50.566;9.774;2023-05-10T11:40:07;17.10;99.90
12926;DHT22;6529;50.566;9.774;2023-05-10T11:42:37;17.10;1.00
12926;DHT22;6529;50.566;9.774;2023-05-10T11:45:02;17.20;99.90
12926;DHT22;6529;50.566;9.774;2023-05-10T11:47:28;17.20;99.90
12926;DHT22;6529;50.566;9.774;2023-05-10T11:49:53;17.30;99.90
12926;DHT22;6529;50.566;9.774;2023-05-10T11:52:19;17.40;1.00
12926;DHT22;6529;50.566;9.774;2023-05-10T11:54:53;17.30;59.10
12926;DHT22;6529;50.566;9.774;2023-05-10T11:57:25;17.30;99.90
12926;DHT22;6529;50.566;9.774;2023-05-10T11:59:54;17.20;1.00
12926;DHT22;6529;50.566;9.774;2023-05-10T12:02:20;17.00;1.00
12926;DHT22;6529;50.566;9.774;2023-05-10T12:04:46;16.50;1.00
12926;DHT22;6529;50.566;9.774;2023-05-10T12:07:12;16.20;99.90
12926;DHT22;6529;50.566;9.774;2023-05-10T12:10:01;16.00;1.00
12926;DHT22;6529;50.566;9.774;2023-05-10T12:12:27;15.70;1.00
12926;DHT22;6529;50.566;9.774;2023-05-10T12:14:52;15.30;99.90
12926;DHT22;6529;50.566;9.774;2023-05-10T12:17:18;15.20;99.90
12926;DHT22;6529;50.566;9.774;2023-05-10T12:19:44;15.00;99.90
12926;DHT22;6529;50.566;9.774;2023-05-10T12:22:09;14.90;99.90
12926;DHT22;6529;50.566;9.774;2023-05-10T12:24:36;14.80;99.90
12926;DHT22;6529;50.566;9.774;2023-05-10T12:27:08;14.80;99.90
12926;DHT22;6529;50.566;9.774;2023-05-10T12:29:34;14.80;99.90
12926;DHT22;6529;50.566;9.774;2023-05-10T12:31:59;14.80;99.90
12926;DHT22;6529;50.566;9.774;2023-05-10T12:36:56;14.80;99.90
12926;DHT22;6529;50.566;9.774;2023-05-10T12:39:23;15.00;99.90
12926;DHT22;6529;50.566;9.774;2023-05-10T12:41:48;15.10;99.90
12926;DHT22;6529;50.566;9.774;2023-05-10T12:44:14;15.20;99.90
12926;DHT22;6529;50.566;9.774;2023-05-10T12:46:39;15.30;99.90
12926;DHT22;6529;50.566;9.774;2023-05-10T12:49:05;15.40;99.90
12926;DHT22;6529;50.566;9.774;2023-05-10T12:51:30;15.40;99.90
12926;DHT22;6529;50.566;9.774;2023-05-10T12:53:56;15.50;99.90
12926;DHT22;6529;50.566;9.774;2023-05-10T12:56:22;15.50;99.90
12926;DHT22;6529;50.566;9.774;2023-05-10T12:58:47;15.50;99.90
12926;DHT22;6529;50.566;9.774;2023-05-10T13:01:14;15.70;99.90
12926;DHT22;6529;50.566;9.774;2023-05-10T13:03:39;15.70;99.90
12926;DHT22;6529;50.566;9.774;2023-05-10T13:06:05;15.90;99.90
12926;DHT22;6529;50.566;9.774;2023-05-10T13:08:31;16.20;99.90
12926;DHT22;6529;50.566;9.774;2023-05-10T13:10:59;16.20;99.90
12926;DHT22;6529;50.566;9.774;2023-05-10T13:13:25;16.50;99.90
12926;DHT22;6529;50.566;9.774;2023-05-10T13:15:51;16.30;1.00
12926;DHT22;6529;50.566;9.774;2023-05-10T13:18:17;16.20;99.90
12926;DHT22;6529;50.566;9.774;2023-05-10T13:20:42;16.10;99.90
12926;DHT22;6529;50.566;9.774;2023-05-10T13:23:10;16.00;99.90
12926;DHT22;6529;50.566;9.774;2023-05-10T13:25:36;16.00;99.90
12926;DHT22;6529;50.566;9.774;2023-05-10T13:28:02;16.10;99.90
12926;DHT22;6529;50.566;9.774;2023-05-10T13:30:27;16.20;1.00
12926;DHT22;6529;50.566;9.774;2023-05-10T13:32:54;16.30;1.00
12926;DHT22;6529;50.566;9.774;2023-05-10T13:35:20;16.30;1.00
12926;DHT22;6529;50.566;9.774;2023-05-10T13:37:45;16.50;1.00
12926;DHT22;6529;50.566;9.774;2023-05-10T13:40:11;16.50;1.00
12926;DHT22;6529;50.566;9.774;2023-05-10T13:42:37;16.50;1.00
12926;DHT22;6529;50.566;9.774;2023-05-10T13:45:03;16.70;1.00
12926;DHT22;6529;50.566;9.774;2023-05-10T13:47:28;16.20;1.00
12926;DHT22;6529;50.566;9.774;2023-05-10T13:49:54;16.10;1.00
12926;DHT22;6529;50.566;9.774;2023-05-10T13:52:19;16.00;1.00
12926;DHT22;6529;50.566;9.774;2023-05-10T13:54:45;15.90;1.00
12926;DHT22;6529;50.566;9.774;2023-05-10T13:57:11;15.70;31.20
12926;DHT22;6529;50.566;9.774;2023-05-10T13:59:39;15.60;1.00
12926;DHT22;6529;50.566;9.774;2023-05-10T14:02:04;15.60;99.90
12926;DHT22;6529;50.566;9.774;2023-05-10T14:04:30;15.70;1.00
12926;DHT22;6529;50.566;9.774;2023-05-10T14:06:56;15.90;99.90
12926;DHT22;6529;50.566;9.774;2023-05-10T14:09:22;15.90;1.00
12926;DHT22;6529;50.566;9.774;2023-05-10T14:11:48;16.20;1.00
12926;DHT22;6529;50.566;9.774;2023-05-10T14:14:13;16.40;1.00
12926;DHT22;6529;50.566;9.774;2023-05-10T14:16:43;16.20;1.00
12926;DHT22;6529;50.566;9.774;2023-05-10T14:19:09;16.10;1.00
12926;DHT22;6529;50.566;9.774;2023-05-10T14:21:35;16.30;1.00
12926;DHT22;6529;50.566;9.774;2023-05-10T14:24:01;16.20;3.30
12926;DHT22;6529;50.566;9.774;2023-05-10T14:26:26;16.20;1.00
12926;DHT22;6529;50.566;9.774;2023-05-10T14:28:52;16.10;1.00
12926;DHT22;6529;50.566;9.774;2023-05-10T14:31:18;16.20;99.90
12926;DHT22;6529;50.566;9.774;2023-05-10T14:33:48;16.30;1.00
12926;DHT22;6529;50.566;9.774;2023-05-10T14:36:14;16.20;72.10
12926;DHT22;6529;50.566;9.774;2023-05-10T14:38:40;16.30;1.00
12926;DHT22;6529;50.566;9.774;2023-05-10T14:41:06;16.30;1.00
12926;DHT22;6529;50.566;9.774;2023-05-10T14:43:31;16.40;99.90
12926;DHT22;6529;50.566;9.774;2023-05-10T14:45:57;16.50;99.90
12926;DHT22;6529;50.566;9.774;2023-05-10T14:48:23;16.80;99.90
12926;DHT22;6529;50.566;9.774;2023-05-10T14:50:48;16.70;1.00
12926;DHT22;6529;50.566;9.774;2023-05-10T14:53:15;16.60;99.90
12926;DHT22;6529;50.566;9.774;2023-05-10T14:55:41;16.70;1.00
12926;DHT22;6529;50.566;9.774;2023-05-10T14:58:06;16.90;66.40
12926;DHT22;6529;50.566;9.774;2023-05-10T15:00:32;16.60;99.90
12926;DHT22;6529;50.566;9.774;2023-05-10T15:02:57;16.50;1.00
12926;DHT22;6529;50.566;9.774;2023-05-10T15:05:23;16.40;1.00
12926;DHT22;6529;50.566;9.774;2023-05-10T15:07:49;16.30;1.00
12926;DHT22;6529;50.566;9.774;2023-05-10T15:10:15;16.30;1.00
12926;DHT22;6529;50.566;9.774;2023-05-10T15:12:40;16.10;1.00
12926;DHT22;6529;50.566;9.774;2023-05-10T15:15:06;16.20;1.00
12926;DHT22;6529;50.566;9.774;2023-05-10T15:17:32;16.40;1.00
12926;DHT22;6529;50.566;9.774;2023-05-10T15:19:58;16.50;1.00
12926;DHT22;6529;50.566;9.774;2023-05-10T15:22:24;16.50;1.00
12926;DHT22;6529;50.566;9.774;2023-05-10T15:24:49;16.50;99.90
12926;DHT22;6529;50.566;9.774;2023-05-10T15:27:15;16.60;31.90
12926;DHT22;6529;50.566;9.774;2023-05-10T15:29:41;16.50;1.00
12926;DHT22;6529;50.566;9.774;2023-05-10T15:32:06;16.50;1.00
12926;DHT22;6529;50.566;9.774;2023-05-10T15:34:32;16.40;99.90
12926;DHT22;6529;50.566;9.774;2023-05-10T15:36:57;16.30;1.00
12926;DHT22;6529;50.566;9.774;2023-05-10T15:39:23;16.10;1.00
12926;DHT22;6529;50.566;9.774;2023-05-10T15:41:49;16.20;1.00
12926;DHT22;6529;50.566;9.774;2023-05-10T15:44:14;16.20;99.90
12926;DHT22;6529;50.566;9.774;2023-05-10T15:46:40;16.20;1.00
12926;DHT22;6529;50.566;9.774;2023-05-10T15:49:05;16.20;1.00
12926;DHT22;6529;50.566;9.774;2023-05-10T15:51:31;16.20;99.90
12926;DHT22;6529;50.566;9.774;2023-05-10T15:54:00;16.10;1.00
12926;DHT22;6529;50.566;9.774;2023-05-10T15:56:27;16.00;1.00
12926;DHT22;6529;50.566;9.774;2023-05-10T15:58:53;16.00;5.40
12926;DHT22;6529;50.566;9.774;2023-05-10T16:01:19;15.90;99.90
12926;DHT22;6529;50.566;9.774;2023-05-10T16:03:45;15.80;99.90
12926;DHT22;6529;50.566;9.774;2023-05-10T16:06:10;15.80;99.90
12926;DHT22;6529;50.566;9.774;2023-05-10T16:08:36;15.90;99.90
12926;DHT22;6529;50.566;9.774;2023-05-10T16:11:02;15.80;99.90
12926;DHT22;6529;50.566;9.774;2023-05-10T16:13:28;15.70;18.70
12926;DHT22;6529;50.566;9.774;2023-05-10T16:15:53;15.70;99.90
12926;DHT22;6529;50.566;9.774;2023-05-10T16:18:19;15.80;99.90
12926;DHT22;6529;50.566;9.774;2023-05-10T16:20:45;15.80;99.90